createdAt,value
2023-02-26T00:03:10.470Z,0.30
2023-02-26T00:08:15.144Z,0.30
2023-02-26T00:13:19.223Z,0.20
2023-02-26T00:18:23.156Z,0.20
2023-02-26T00:23:28.277Z,0.10
2023-02-26T00:28:32.179Z,0.10
2023-02-26T00:33:36.112Z,0.00
2023-02-26T00:38:44.284Z,0.00
2023-02-26T00:43:48.113Z,0.00
2023-02-26T00:49:01.886Z,-0.10
2023-02-26T00:54:14.442Z,-0.10
2023-02-26T00:59:17.871Z,-0.10
2023-02-26T01:04:23.372Z,-0.70
2023-02-26T01:09:29.961Z,-0.10
2023-02-26T01:14:34.575Z,-0.30
2023-02-26T01:19:45.426Z,-0.40
2023-02-26T01:24:55.656Z,-0.40
2023-02-26T01:29:59.666Z,-0.40
2023-02-26T01:35:10.212Z,-0.60
2023-02-26T01:40:51.366Z,-0.60
2023-02-26T01:46:02.994Z,-0.80
2023-02-26T01:51:07.113Z,-0.90
2023-02-26T01:56:17.305Z,-0.90
2023-02-26T02:01:21.703Z,-1.10
2023-02-26T02:06:27.882Z,-1.10
2023-02-26T02:11:33.357Z,-1.10
2023-02-26T02:16:45.546Z,-1.10
2023-02-26T02:22:03.635Z,-1.10
2023-02-26T02:27:15.164Z,-1.10
2023-02-26T02:32:25.096Z,-1.20
2023-02-26T02:37:33.770Z,-1.30
2023-02-26T02:42:40.985Z,-1.30
2023-02-26T02:47:51.206Z,-1.40
2023-02-26T02:52:58.544Z,-1.40
2023-02-26T02:58:06.172Z,-1.50
2023-02-26T03:03:18.448Z,-1.40
2023-02-26T03:08:24.150Z,-1.40
2023-02-26T03:13:28.060Z,-1.40
2023-02-26T03:18:51.976Z,-1.40
2023-02-26T03:24:01.792Z,-1.50
2023-02-26T03:29:09.930Z,-1.50
2023-02-26T03:34:20.983Z,-1.50
2023-02-26T03:39:29.692Z,-1.50
2023-02-26T03:44:36.381Z,-1.60
2023-02-26T03:49:46.314Z,-1.60
2023-02-26T03:54:53.977Z,-1.70
2023-02-26T04:00:28.232Z,-1.70
2023-02-26T04:05:36.401Z,-1.70
2023-02-26T04:10:46.328Z,-1.60
2023-02-26T04:15:49.913Z,-1.50
2023-02-26T04:20:54.610Z,-1.40
2023-02-26T04:25:58.083Z,-1.40
2023-02-26T04:31:03.142Z,-1.30
2023-02-26T04:36:09.077Z,-1.30
2023-02-26T04:41:12.974Z,-1.40
2023-02-26T04:46:18.323Z,-1.30
2023-02-26T04:51:23.279Z,-1.30
2023-02-26T04:56:28.607Z,0.90
2023-02-26T05:01:32.111Z,-1.30
2023-02-26T05:06:37.420Z,-1.40
2023-02-26T05:11:40.730Z,-1.30
2023-02-26T05:16:44.246Z,-1.30
2023-02-26T05:21:49.401Z,-1.20
2023-02-26T05:26:52.796Z,-1.30
2023-02-26T05:31:56.165Z,-1.30
2023-02-26T05:37:01.004Z,-1.30
2023-02-26T05:42:04.346Z,-1.40
2023-02-26T05:47:07.830Z,-1.30
2023-02-26T05:52:12.491Z,-1.30
2023-02-26T05:57:15.720Z,-1.30
2023-02-26T06:02:19.178Z,-1.30
2023-02-26T06:07:24.553Z,-1.30
2023-02-26T06:12:27.788Z,-1.40
2023-02-26T06:17:31.222Z,-1.20
2023-02-26T06:22:35.874Z,-1.30
2023-02-26T06:27:39.183Z,-1.30
2023-02-26T06:32:42.872Z,-1.20
2023-02-26T06:37:47.523Z,-1.30
2023-02-26T06:42:50.820Z,-1.00
2023-02-26T06:47:54.072Z,-1.20
2023-02-26T06:52:58.754Z,-1.20
2023-02-26T06:58:30.461Z,-1.20
2023-02-26T07:03:35.083Z,-1.10
2023-02-26T07:08:40.330Z,-1.10
2023-02-26T07:13:43.670Z,-1.00
2023-02-26T07:18:47.037Z,-1.00
2023-02-26T07:23:51.730Z,-0.90
2023-02-26T07:28:55.146Z,-0.90
2023-02-26T07:33:58.497Z,-0.70
2023-02-26T07:39:03.261Z,-0.50
2023-02-26T07:44:06.960Z,-0.30
2023-02-26T07:49:10.240Z,-0.20
2023-02-26T07:54:15.823Z,-0.10
2023-02-26T07:59:19.384Z,0.30
2023-02-26T08:04:29.511Z,0.50
2023-02-26T08:09:34.251Z,0.90
2023-02-26T08:14:37.540Z,0.90
2023-02-26T08:19:41.032Z,0.80
2023-02-26T08:24:47.820Z,0.70
2023-02-26T08:29:51.397Z,2.00
2023-02-26T08:34:55.689Z,1.40
2023-02-26T08:40:00.433Z,1.50
2023-02-26T08:45:03.809Z,2.00
2023-02-26T08:50:07.638Z,1.90
2023-02-26T08:55:12.905Z,1.40
2023-02-26T09:00:18.813Z,1.50
2023-02-26T09:05:22.190Z,2.30
2023-02-26T09:10:26.943Z,3.70
2023-02-26T09:15:30.446Z,4.20
2023-02-26T09:20:35.221Z,4.10
2023-02-26T09:25:39.991Z,4.90
2023-02-26T09:30:43.520Z,5.70
2023-02-26T09:35:49.303Z,6.20
2023-02-26T09:40:57.705Z,6.10
2023-02-26T09:46:04.480Z,6.80
2023-02-26T09:51:09.784Z,7.60
2023-02-26T09:56:18.051Z,6.20
2023-02-26T10:01:29.760Z,5.40
2023-02-26T10:06:36.222Z,5.20
2023-02-26T10:11:50.481Z,5.00
2023-02-26T10:16:59.297Z,4.40
2023-02-26T10:22:10.084Z,4.20
2023-02-26T10:27:17.728Z,3.50
2023-02-26T10:32:27.909Z,3.40
2023-02-26T10:37:44.344Z,3.50
2023-02-26T10:42:50.922Z,3.20
2023-02-26T10:47:58.871Z,2.50
2023-02-26T10:53:02.847Z,1.50
2023-02-26T10:58:13.368Z,3.10
2023-02-26T11:03:17.630Z,5.60
2023-02-26T11:08:25.277Z,6.60
2023-02-26T11:13:33.235Z,6.20
2023-02-26T11:18:40.795Z,6.50
2023-02-26T11:23:44.695Z,6.40
2023-02-26T11:28:49.936Z,5.90
2023-02-26T11:33:55.862Z,6.00
2023-02-26T11:38:59.972Z,7.00
2023-02-26T11:44:06.997Z,6.00
2023-02-26T11:49:13.343Z,5.90
2023-02-26T11:54:24.016Z,5.00
2023-02-26T11:59:31.786Z,4.10
2023-02-26T12:04:35.200Z,6.60
2023-02-26T12:09:40.010Z,8.50
2023-02-26T12:15:02.533Z,8.80
2023-02-26T12:20:19.958Z,10.00
2023-02-26T12:25:43.975Z,9.40
2023-02-26T12:31:02.974Z,6.80
2023-02-26T12:36:31.721Z,6.40
2023-02-26T12:41:51.961Z,5.80
2023-02-26T12:47:14.476Z,7.50
2023-02-26T12:52:40.873Z,10.00
2023-02-26T12:57:57.064Z,11.70
2023-02-26T13:03:25.867Z,8.60
2023-02-26T13:08:37.248Z,5.80
2023-02-26T13:14:04.154Z,4.20
2023-02-26T13:19:21.751Z,4.20
2023-02-26T13:24:29.205Z,7.50
2023-02-26T13:29:37.767Z,8.30
2023-02-26T13:34:46.504Z,8.30
2023-02-26T13:39:56.719Z,10.40
2023-02-26T13:45:08.425Z,10.30
2023-02-26T13:50:27.712Z,11.20
2023-02-26T13:55:42.243Z,12.40
2023-02-26T14:00:48.837Z,10.90
2023-02-26T14:06:09.390Z,9.80
2023-02-26T14:11:48.493Z,9.20
2023-02-26T14:16:56.309Z,8.10
2023-02-26T14:22:15.751Z,4.70
2023-02-26T14:27:34.226Z,2.90
2023-02-26T14:32:48.579Z,2.60
2023-02-26T14:38:00.774Z,2.60
2023-02-26T14:43:09.124Z,3.30
2023-02-26T14:48:15.942Z,5.20
2023-02-26T14:53:53.822Z,5.50
2023-02-26T14:59:21.548Z,6.30
2023-02-26T15:04:52.190Z,6.70
2023-02-26T15:10:12.109Z,8.50
2023-02-26T15:15:36.517Z,9.10
2023-02-26T15:20:49.604Z,8.90
2023-02-26T15:25:57.415Z,10.20
2023-02-26T15:31:03.053Z,11.30
2023-02-26T15:36:10.199Z,6.70
2023-02-26T15:41:16.484Z,5.10
2023-02-26T15:46:22.147Z,3.60
2023-02-26T15:51:26.841Z,2.90
2023-02-26T15:56:36.826Z,2.50
2023-02-26T16:01:42.298Z,2.20
2023-02-26T16:06:48.436Z,2.00
2023-02-26T16:11:56.193Z,1.90
2023-02-26T16:17:00.265Z,2.10
2023-02-26T16:22:07.824Z,2.30
2023-02-26T16:27:15.311Z,2.20
2023-02-26T16:32:19.386Z,1.80
2023-02-26T16:37:27.420Z,1.60
2023-02-26T16:42:45.268Z,1.50
2023-02-26T16:47:52.455Z,1.40
2023-02-26T16:53:10.272Z,1.30
2023-02-26T16:58:17.976Z,1.20
2023-02-26T17:03:24.924Z,1.20
2023-02-26T17:08:33.660Z,1.20
2023-02-26T17:13:39.696Z,1.20
2023-02-26T17:18:43.744Z,1.20
2023-02-26T17:23:47.589Z,1.10
2023-02-26T17:28:52.739Z,0.90
2023-02-26T17:33:56.153Z,1.10
2023-02-26T17:38:59.850Z,1.10
2023-02-26T17:44:04.502Z,1.10
2023-02-26T17:49:09.401Z,1.10
2023-02-26T17:54:12.840Z,1.10
2023-02-26T17:59:17.434Z,1.10
2023-02-26T18:04:20.783Z,1.10
2023-02-26T18:09:24.084Z,1.10
2023-02-26T18:14:28.661Z,1.10
2023-02-26T18:19:31.860Z,1.10
2023-02-26T18:24:35.076Z,1.00
2023-02-26T18:29:39.769Z,1.00
2023-02-26T18:34:43.009Z,1.00
2023-02-26T18:39:46.960Z,1.00
2023-02-26T18:44:52.986Z,0.90
2023-02-26T18:49:57.052Z,0.90
2023-02-26T18:55:00.926Z,0.90
2023-02-26T19:00:08.156Z,0.90
2023-02-26T19:05:13.284Z,0.90
2023-02-26T19:10:16.736Z,0.90
2023-02-26T19:15:21.509Z,0.80
2023-02-26T19:20:24.756Z,0.70
2023-02-26T19:25:30.346Z,0.60
2023-02-26T19:30:35.697Z,0.50
2023-02-26T19:35:39.207Z,0.40
2023-02-26T19:40:43.709Z,0.30
2023-02-26T19:45:48.430Z,0.30
2023-02-26T19:50:52.663Z,0.20
2023-02-26T19:55:55.948Z,0.70
2023-02-26T20:01:02.281Z,0.10
2023-02-26T20:06:08.507Z,0.40
2023-02-26T20:11:12.845Z,0.20
2023-02-26T20:16:18.832Z,0.20
2023-02-26T20:21:24.937Z,2.60
2023-02-26T20:26:29.424Z,0.30
2023-02-26T20:31:35.478Z,0.30
2023-02-26T20:36:42.169Z,0.30
2023-02-26T20:41:47.188Z,0.20
2023-02-26T20:46:52.859Z,0.10
2023-02-26T20:51:56.248Z,0.10
2023-02-26T20:56:59.760Z,0.10
2023-02-26T21:02:06.553Z,0.20
2023-02-26T21:07:22.144Z,0.20
2023-02-26T21:12:26.390Z,0.20
2023-02-26T21:17:32.799Z,0.10
2023-02-26T21:22:37.089Z,0.10
2023-02-26T21:27:41.809Z,-0.10
2023-02-26T21:32:48.038Z,-0.20
2023-02-26T21:37:51.936Z,-0.30
2023-02-26T21:42:55.385Z,-0.30
2023-02-26T21:48:01.563Z,-0.40
2023-02-26T21:53:05.660Z,-0.40
2023-02-26T21:58:10.253Z,-0.40
2023-02-26T22:03:16.182Z,-0.50
2023-02-26T22:08:20.723Z,-0.50
2023-02-26T22:13:24.793Z,-0.50
2023-02-26T22:18:30.004Z,-0.50
2023-02-26T22:23:33.393Z,-0.60
2023-02-26T22:28:37.431Z,-0.60
2023-02-26T22:33:42.835Z,-0.60
2023-02-26T22:38:47.711Z,-0.60
2023-02-26T22:43:53.759Z,-0.70
2023-02-26T22:49:01.111Z,-0.70
2023-02-26T22:54:04.923Z,-0.70
2023-02-26T22:59:09.129Z,-0.80
2023-02-26T23:04:14.792Z,-0.80
2023-02-26T23:09:18.526Z,-0.80
2023-02-26T23:14:22.809Z,-0.80
2023-02-26T23:19:28.577Z,-0.80
2023-02-26T23:24:32.641Z,-0.80
2023-02-26T23:29:37.668Z,-0.80
2023-02-26T23:34:42.513Z,-0.80
2023-02-26T23:39:47.939Z,-0.80
2023-02-26T23:44:51.176Z,-0.80
2023-02-26T23:49:55.759Z,-0.80
2023-02-26T23:54:59.216Z,-0.80
